Time;durP1;ratioP1;P1;durP2;ratioP2;P2;SDS_P1;SDS_P2;PMS_P1;PMS_P2;Temp;Humidity;BMP_temperature;BMP_pressure;BME280_temperature;BME280_humidity;BME280_pressure;Samples;Min_cycle;Max_cycle;Signal;HPM_P1;HPM_P2
2021/04/21 00:01:23;;;;;;;11.23;9.53;;;;;;;10.24;60.82;98794.34;5129925;27;42725;-72
2021/04/21 00:03:52;;;;;;;10.07;9.07;;;;;;;10.19;60.91;98788.47;5130860;27;41889;-72
2021/04/21 00:06:20;;;;;;;11.13;9.97;;;;;;;10.14;61.85;98779.91;5131421;27;39708;-73
2021/04/21 00:08:50;;;;;;;10.97;9.87;;;;;;;10.10;62.19;98786.34;5129748;27;41729;-73
2021/04/21 00:11:18;;;;;;;13.70;12.03;;;;;;;10.04;61.81;98795.50;5129567;27;42707;-73
2021/04/21 00:13:46;;;;;;;10.47;8.87;;;;;;;10.00;61.94;98787.88;5130029;27;42116;-73
2021/04/21 00:16:14;;;;;;;10.70;9.60;;;;;;;9.96;62.54;98783.72;5128780;27;40635;-73
2021/04/21 00:18:45;;;;;;;12.93;10.77;;;;;;;9.91;62.38;98793.69;5130826;27;41548;-72
2021/04/21 00:21:13;;;;;;;11.90;10.33;;;;;;;9.85;61.91;98789.66;5130310;27;41985;-73
2021/04/21 00:23:42;;;;;;;10.73;9.70;;;;;;;9.81;62.12;98792.56;5129779;27;42141;-73
2021/04/21 00:26:15;;;;;;;10.13;9.13;;;;;;;9.66;62.14;98771.38;5130921;27;39861;-72
2021/04/21 00:28:43;;;;;;;13.53;11.60;;;;;;;9.65;62.11;98772.31;5128475;27;42367;-72
2021/04/21 00:31:14;;;;;;;9.33;8.33;;;;;;;9.63;62.79;98773.38;5130473;27;42471;-73
2021/04/21 00:33:43;;;;;;;10.37;9.37;;;;;;;9.56;63.01;98780.81;5128842;27;42318;-72
2021/04/21 00:36:14;;;;;;;12.03;10.73;;;;;;;9.50;62.78;98773.25;5129907;27;40077;-73
2021/04/21 00:38:43;;;;;;;9.37;8.47;;;;;;;9.47;63.18;98769.94;5129021;27;40921;-73
2021/04/21 00:41:23;;;;;;;11.27;9.23;;;;;;;9.43;64.00;98771.06;5130650;27;42981;-72
2021/04/21 00:43:54;;;;;;;16.13;11.43;;;;;;;9.36;63.94;98765.28;5130297;27;41982;-72
2021/04/21 00:46:25;;;;;;;11.80;10.60;;;;;;;9.23;63.42;98765.16;5130201;27;39937;-73
2021/04/21 00:49:04;;;;;;;11.17;9.87;;;;;;;9.24;63.31;98774.78;5128146;27;42571;-73
2021/04/21 00:51:38;;;;;;;10.03;9.03;;;;;;;9.20;63.18;98772.41;5128944;27;43507;-73
2021/04/21 00:54:13;;;;;;;10.50;9.33;;;;;;;9.15;63.26;98771.84;5111782;27;41118;-73
2021/04/21 00:56:55;;;;;;;10.73;9.73;;;;;;;9.09;64.07;98766.91;5113394;27;40690;-72
2021/04/21 00:59:33;;;;;;;13.57;11.37;;;;;;;9.00;63.69;98761.22;5129365;27;41804;-72
2021/04/21 01:02:04;;;;;;;11.03;9.90;;;;;;;8.98;63.51;98771.03;5129763;27;43669;-72
2021/04/21 01:04:32;;;;;;;10.87;9.63;;;;;;;8.93;63.54;98773.06;5130419;27;42246;-73
2021/04/21 01:07:01;;;;;;;11.67;9.77;;;;;;;8.88;63.35;98772.47;5112109;27;39369;-73
2021/04/21 01:09:30;;;;;;;11.40;10.30;;;;;;;8.82;63.53;98775.47;5129450;27;41629;-72
2021/04/21 01:12:03;;;;;;;11.93;10.57;;;;;;;8.79;63.85;98772.97;5128982;27;42422;-73
2021/04/21 01:14:38;;;;;;;9.90;8.90;;;;;;;8.74;64.05;98766.28;5130848;27;41965;-73
2021/04/21 01:17:08;;;;;;;11.30;10.10;;;;;;;8.66;63.77;98769.31;5129886;27;40327;-72
2021/04/21 01:19:49;;;;;;;11.23;10.00;;;;;;;8.62;64.09;98767.81;5130364;27;42214;-72
2021/04/21 01:22:25;;;;;;;10.50;8.40;;;;;;;8.57;63.73;98769.84;5128920;27;43200;-72
2021/04/21 01:25:00;;;;;;;10.03;8.97;;;;;;;8.52;63.86;98767.50;5112264;27;41609;-73
2021/04/21 01:27:44;;;;;;;13.10;11.43;;;;;;;8.48;63.90;98770.38;5129496;27;39673;-72
2021/04/21 01:30:14;;;;;;;10.37;9.20;;;;;;;8.39;64.15;98760.34;5129145;27;41437;-72
2021/04/21 01:32:45;;;;;;;13.07;10.70;;;;;;;8.35;64.27;98769.34;5127693;27;42013;-73
2021/04/21 01:35:15;;;;;;;14.77;10.70;;;;;;;8.29;64.38;98762.56;5128994;27;42183;-72
2021/04/21 01:37:43;;;;;;;10.93;9.50;;;;;;;8.22;64.40;98767.34;5129270;27;39928;-73
2021/04/21 01:40:14;;;;;;;12.77;10.00;;;;;;;8.17;64.48;98764.09;5129750;27;41713;-73
2021/04/21 01:42:45;;;;;;;11.10;9.93;;;;;;;8.11;64.71;98772.34;5127205;27;42305;-72
2021/04/21 01:45:17;;;;;;;10.93;9.83;;;;;;;8.07;64.67;98770.81;5127475;27;43063;-73
2021/04/21 01:47:45;;;;;;;11.13;8.90;;;;;;;8.03;64.69;98763.16;5128719;27;40035;-73
2021/04/21 01:50:15;;;;;;;11.23;9.17;;;;;;;7.98;64.77;98768.66;5128119;27;42406;-73
2021/04/21 01:52:54;;;;;;;10.17;8.80;;;;;;;7.95;64.90;98768.81;5127821;27;43118;-73
2021/04/21 01:55:36;;;;;;;10.07;9.07;;;;;;;7.90;64.86;98770.88;5112374;27;41680;-73
2021/04/21 01:58:13;;;;;;;9.97;8.67;;;;;;;7.87;64.84;98773.66;5128948;27;40657;-74
2021/04/21 02:00:44;;;;;;;9.60;8.60;;;;;;;7.82;64.64;98773.03;5129920;27;41741;-73
2021/04/21 02:03:17;;;;;;;10.37;9.37;;;;;;;7.77;64.87;98772.44;5126723;27;42671;-73
2021/04/21 02:06:04;;;;;;;10.93;9.27;;;;;;;7.74;64.98;98775.22;5128206;27;42938;-72
2021/04/21 02:08:42;;;;;;;9.63;8.63;;;;;;;7.69;65.06;98779.88;5129154;27;39960;-72
2021/04/21 02:11:17;;;;;;;10.67;9.57;;;;;;;7.65;65.12;98775.72;5127922;27;41157;-72
2021/04/21 02:14:03;;;;;;;11.43;10.17;;;;;;;7.62;65.28;98781.13;5128541;27;42522;-73
2021/04/21 02:16:38;;;;;;;9.87;8.73;;;;;;;7.56;65.44;98777.03;5129060;27;42792;-73
2021/04/21 02:19:19;;;;;;;9.20;8.30;;;;;;;7.51;65.43;98777.28;5129121;27;39792;-73
2021/04/21 02:21:53;;;;;;;9.60;8.60;;;;;;;7.47;65.41;98778.34;5127437;27;42092;-72
2021/04/21 02:24:29;;;;;;;10.13;9.07;;;;;;;7.41;65.33;98776.06;5129757;27;42703;-72
2021/04/21 02:27:04;;;;;;;9.00;8.07;;;;;;;7.37;65.60;98774.50;5127053;27;42529;-73
2021/04/21 02:29:40;;;;;;;11.07;9.10;;;;;;;7.34;65.43;98777.28;5127903;27;39908;-72
2021/04/21 02:32:15;;;;;;;9.33;8.40;;;;;;;7.30;65.50;98775.72;5126733;27;41452;-72
2021/04/21 02:34:51;;;;;;;9.73;8.73;;;;;;;7.25;65.39;98769.00;5126619;27;43210;-72
2021/04/21 02:37:24;;;;;;;9.77;8.60;;;;;;;7.20;65.75;98775.34;5129359;27;42845;-72
2021/04/21 02:39:59;;;;;;;9.53;8.53;;;;;;;7.14;65.63;98772.16;5128106;27;39297;-72
2021/04/21 02:42:35;;;;;;;9.30;8.30;;;;;;;7.14;65.67;98777.44;5128506;27;42441;-72
2021/04/21 02:45:11;;;;;;;9.53;8.33;;;;;;;7.06;65.75;98775.16;5130320;27;43463;-72
2021/04/21 02:47:40;;;;;;;8.53;7.60;;;;;;;7.07;65.70;98779.50;5132800;27;42888;-72
2021/04/21 02:50:12;;;;;;;9.67;7.97;;;;;;;7.05;65.81;98772.59;5131030;27;39826;-72
2021/04/21 02:52:56;;;;;;;8.33;7.53;;;;;;;7.01;66.09;98777.19;5132172;27;40388;-72
2021/04/21 02:55:32;;;;;;;9.50;8.17;;;;;;;6.99;66.55;98778.19;5131214;27;43355;-73
2021/04/21 02:58:08;;;;;;;10.37;9.10;;;;;;;6.96;66.43;98773.06;5131749;27;42291;-72
2021/04/21 03:00:44;;;;;;;11.50;10.30;;;;;;;6.93;66.50;98774.06;5133286;27;40054;-72
2021/04/21 03:03:24;;;;;;;12.93;9.40;;;;;;;6.90;66.59;98776.03;5129817;27;42119;-72
2021/04/21 03:06:00;;;;;;;10.60;8.97;;;;;;;6.85;66.78;98766.56;5132876;27;42823;-72
2021/04/21 03:08:32;;;;;;;9.70;8.60;;;;;;;6.82;66.90;98769.31;5130988;27;41511;-72
2021/04/21 03:11:06;;;;;;;10.93;9.57;;;;;;;6.83;67.08;98770.19;5132007;27;39027;-73
2021/04/21 03:13:38;;;;;;;11.57;10.20;;;;;;;6.81;67.33;98770.25;5130758;27;41331;-73
2021/04/21 03:16:10;;;;;;;9.73;8.83;;;;;;;6.78;67.10;98770.44;5131640;27;42008;-72
2021/04/21 03:18:41;;;;;;;10.30;9.20;;;;;;;6.73;67.35;98769.78;5130087;27;42122;-72
2021/04/21 03:21:13;;;;;;;10.53;9.07;;;;;;;6.72;67.12;98768.06;5130284;27;39670;-72
2021/04/21 03:23:43;;;;;;;9.70;8.27;;;;;;;6.69;67.19;98775.25;5132065;27;41673;-72
2021/04/21 03:26:12;;;;;;;9.93;8.93;;;;;;;6.67;67.04;98772.72;5131963;27;42665;-73
2021/04/21 03:28:41;;;;;;;10.90;9.53;;;;;;;6.64;66.92;98780.75;5131949;27;42854;-73
2021/04/21 03:31:12;;;;;;;10.93;9.83;;;;;;;6.59;67.15;98777.47;5131333;27;39990;-73
2021/04/21 03:33:43;;;;;;;10.57;8.83;;;;;;;6.57;67.18;98775.84;5130131;27;41326;-72
2021/04/21 03:36:14;;;;;;;10.07;8.97;;;;;;;6.53;67.20;98771.66;5131631;27;43545;-73
2021/04/21 03:38:43;;;;;;;9.13;7.90;;;;;;;6.48;67.12;98777.13;5131277;27;42178;-72
2021/04/21 03:41:11;;;;;;;9.93;8.97;;;;;;;6.43;66.87;98766.81;5132231;27;39869;-72
2021/04/21 03:43:40;;;;;;;9.93;8.63;;;;;;;6.39;67.23;98764.44;5130390;27;42457;-73
2021/04/21 03:46:07;;;;;;;13.77;10.70;;;;;;;6.36;67.24;98767.19;5130561;27;42117;-72
2021/04/21 03:48:37;;;;;;;9.57;8.67;;;;;;;6.30;67.51;98760.47;5130323;27;41973;-73
2021/04/21 03:51:06;;;;;;;9.47;8.57;;;;;;;6.29;67.50;98765.78;5131168;27;40564;-72
2021/04/21 03:53:36;;;;;;;10.13;8.97;;;;;;;6.24;67.44;98762.50;5131809;27;42403;-72
2021/04/21 03:56:05;;;;;;;9.63;8.63;;;;;;;6.22;67.60;98765.22;5129743;27;42673;-72
2021/04/21 03:58:34;;;;;;;10.00;8.50;;;;;;;6.19;67.55;98760.06;5131468;27;41914;-72
2021/04/21 04:01:21;;;;;;;12.10;10.30;;;;;;;6.15;67.36;98765.56;5130426;27;39603;-72
2021/04/21 04:03:52;;;;;;;10.43;8.70;;;;;;;6.12;67.78;98762.16;5130258;27;42852;-72
2021/04/21 04:06:23;;;;;;;10.67;9.00;;;;;;;6.11;67.74;98768.34;5129961;27;43450;-72
2021/04/21 04:08:54;;;;;;;9.40;8.00;;;;;;;6.09;67.69;98766.69;5131086;27;42214;-72
2021/04/21 04:11:27;;;;;;;9.97;8.93;;;;;;;6.06;67.79;98772.94;5113380;27;41216;-72
2021/04/21 04:14:02;;;;;;;9.73;8.73;;;;;;;6.03;67.88;98773.09;5131287;27;41796;-72
2021/04/21 04:16:31;;;;;;;8.20;7.40;;;;;;;6.03;67.78;98774.88;5131075;27;42008;-72
2021/04/21 04:19:00;;;;;;;10.30;8.80;;;;;;;6.00;67.87;98773.22;5131361;27;42678;-73
2021/04/21 04:21:31;;;;;;;8.70;7.80;;;;;;;6.00;67.91;98775.84;5129264;27;40631;-73
2021/04/21 04:24:00;;;;;;;9.23;8.07;;;;;;;5.99;67.87;98774.16;5131550;27;42542;-74
2021/04/21 04:26:27;;;;;;;10.70;9.50;;;;;;;5.97;67.91;98776.00;5131616;27;42817;-72
2021/04/21 04:28:55;;;;;;;10.37;8.07;;;;;;;5.96;67.77;98779.53;5132071;27;42119;-72
2021/04/21 04:31:22;;;;;;;9.43;8.53;;;;;;;5.97;67.71;98786.50;5131047;27;39964;-73
2021/04/21 04:33:50;;;;;;;9.33;8.43;;;;;;;5.97;67.85;98786.50;5132538;27;41764;-73
2021/04/21 04:36:18;;;;;;;10.17;9.10;;;;;;;6.00;67.76;98793.41;5130868;27;42763;-74
2021/04/21 04:38:46;;;;;;;11.17;8.97;;;;;;;6.00;67.81;98791.63;5130719;27;42301;-74
2021/04/21 04:41:14;;;;;;;9.93;8.93;;;;;;;6.03;67.88;98791.50;5130597;27;40069;-72
2021/04/21 04:43:43;;;;;;;10.53;9.27;;;;;;;6.05;67.72;98797.53;5129158;27;41606;-72
2021/04/21 04:46:14;;;;;;;10.23;9.07;;;;;;;6.07;67.92;98793.03;5129127;27;42509;-72
2021/04/21 04:48:46;;;;;;;10.23;8.77;;;;;;;6.11;67.78;98799.88;5128671;27;42205;-72
2021/04/21 04:51:16;;;;;;;11.80;9.63;;;;;;;6.16;67.84;98797.06;5130236;27;39771;-72
2021/04/21 04:53:45;;;;;;;10.20;9.20;;;;;;;6.20;67.82;98800.38;5129094;27;41600;-73
2021/04/21 04:56:13;;;;;;;10.97;8.90;;;;;;;6.26;67.75;98808.00;5130007;27;42793;-72
2021/04/21 04:58:45;;;;;;;9.93;8.90;;;;;;;6.33;67.64;98804.16;5127315;27;42699;-73
2021/04/21 05:01:13;;;;;;;9.03;8.13;;;;;;;6.39;67.57;98809.13;5129573;27;39957;-72
2021/04/21 05:03:48;;;;;;;9.80;8.33;;;;;;;6.47;67.64;98807.00;5128002;27;42454;-72
2021/04/21 05:06:18;;;;;;;12.13;9.30;;;;;;;6.55;67.43;98811.91;5128987;27;42739;-74
2021/04/21 05:08:49;;;;;;;11.23;8.87;;;;;;;6.63;67.29;98817.66;5128849;27;41640;-73
2021/04/21 05:11:17;;;;;;;10.33;9.13;;;;;;;6.71;67.37;98816.38;5128981;27;39818;-73
2021/04/21 05:13:46;;;;;;;10.60;9.17;;;;;;;6.81;67.09;98828.16;5129689;27;41791;-72
2021/04/21 05:16:48;;;;;;;10.63;9.53;;;;;;;6.91;67.31;98822.47;5128968;27;41827;-73
2021/04/21 05:19:50;;;;;;;11.00;9.87;;;;;;;7.00;67.08;98827.28;5126790;27;42145;-73
2021/04/21 05:22:53;;;;;;;10.97;8.97;;;;;;;7.11;66.86;98830.25;5123823;27;40534;-73
2021/04/21 05:25:55;;;;;;;9.53;8.53;;;;;;;7.19;66.75;98828.94;5100003;27;42365;-73
2021/04/21 05:29:04;;;;;;;13.30;9.50;;;;;;;7.32;66.57;98834.44;5127624;27;42174;-73
2021/04/21 05:32:07;;;;;;;9.13;8.30;;;;;;;7.46;66.38;98831.97;5129977;27;42156;-73
2021/04/21 05:35:24;;;;;;;9.83;8.83;;;;;;;7.62;66.04;98833.84;5129581;27;39464;-73
2021/04/21 05:38:24;;;;;;;9.83;8.80;;;;;;;7.75;66.00;98833.16;5126437;27;46545;-74
2021/04/21 05:41:09;;;;;;;9.83;8.83;;;;;;;7.90;65.92;98836.78;5123642;27;42509;-73
2021/04/21 05:44:19;;;;;;;11.77;9.50;;;;;;;8.01;65.71;98834.44;5128167;27;42810;-72
2021/04/21 05:47:33;;;;;;;11.70;10.50;;;;;;;8.25;65.58;98832.28;5128688;27;40184;-72
2021/04/21 05:50:37;;;;;;;13.07;10.20;;;;;;;8.50;65.48;98837.13;5122627;27;40792;-72
2021/04/21 05:53:45;;;;;;;13.50;10.40;;;;;;;8.72;65.46;98827.09;5128293;27;42278;-70
2021/04/21 05:56:36;;;;;;;13.53;11.27;;;;;;;8.91;65.17;98830.38;5127047;27;42188;-70
2021/04/21 05:59:42;;;;;;;11.83;10.57;;;;;;;9.09;65.59;98819.72;5128378;27;40125;-71
2021/04/21 06:02:09;;;;;;;15.00;12.50;;;;;;;9.20;65.29;98826.09;5106187;27;45526;-74
2021/04/21 06:04:36;;;;;;;17.33;11.77;;;;;;;9.37;64.95;98827.78;5125864;27;42770;-71
2021/04/21 06:07:07;;;;;;;13.43;12.03;;;;;;;9.59;64.83;98828.22;5128356;27;42005;-71
2021/04/21 06:09:34;;;;;;;12.63;11.33;;;;;;;9.80;64.61;98827.88;5129465;27;40726;-72
2021/04/21 06:12:07;;;;;;;13.30;11.90;;;;;;;10.07;64.08;98826.22;5126940;27;42225;-73
2021/04/21 06:14:34;;;;;;;16.40;11.87;;;;;;;10.40;63.40;98833.91;5127339;27;43209;-74
2021/04/21 06:17:01;;;;;;;12.10;10.67;;;;;;;10.57;63.02;98835.53;5126831;27;42075;-74
2021/04/21 06:19:28;;;;;;;13.87;12.07;;;;;;;10.70;62.90;98826.72;5128337;27;39669;-72
2021/04/21 06:21:55;;;;;;;15.40;12.83;;;;;;;10.82;62.51;98840.97;5126264;27;41806;-73
2021/04/21 06:24:24;;;;;;;15.20;13.07;;;;;;;10.99;62.60;98842.56;5126683;27;42692;-73
2021/04/21 06:27:05;;;;;;;16.23;14.53;;;;;;;11.14;62.04;98842.38;5128027;27;42838;-73
2021/04/21 06:29:33;;;;;;;17.20;13.60;;;;;;;11.28;61.56;98848.59;5128029;27;40659;-72
2021/04/21 06:32:03;;;;;;;14.23;12.73;;;;;;;11.35;61.77;98844.59;5127921;27;41427;-73
2021/04/21 06:34:30;;;;;;;14.47;12.20;;;;;;;11.41;61.70;98828.28;5127987;27;42655;-73
2021/04/21 06:36:59;;;;;;;16.10;13.23;;;;;;;11.68;61.07;98850.31;5127004;27;42350;-73
2021/04/21 06:39:29;;;;;;;15.30;13.50;;;;;;;11.89;60.86;98848.03;5128734;27;40301;-73
2021/04/21 06:41:58;;;;;;;14.53;12.37;;;;;;;12.13;60.79;98853.47;5126419;27;41438;-72
2021/04/21 06:44:42;;;;;;;17.10;13.53;;;;;;;12.26;60.46;98854.31;5127984;27;41796;-72
2021/04/21 06:47:09;;;;;;;13.90;12.57;;;;;;;12.38;60.44;98858.78;5128109;27;42801;-73
2021/04/21 06:49:36;;;;;;;14.33;12.73;;;;;;;12.49;60.08;98861.53;5128062;27;40738;-75
2021/04/21 06:52:11;;;;;;;41.83;31.63;;;;;;;12.62;59.90;98860.66;5127612;27;42161;-73
2021/04/21 06:54:41;;;;;;;21.53;17.07;;;;;;;12.59;59.27;98838.69;5126857;27;42501;-75
2021/04/21 06:57:09;;;;;;;21.13;15.23;;;;;;;12.88;59.08;98857.84;5109471;27;43647;-73
2021/04/21 06:59:37;;;;;;;15.67;14.03;;;;;;;13.01;59.10;98831.25;5127218;27;42069;-73
2021/04/21 07:02:04;;;;;;;14.73;13.23;;;;;;;13.04;58.71;98809.75;5109706;27;41023;-74
2021/04/21 07:04:34;;;;;;;19.50;14.77;;;;;;;13.35;58.23;98847.44;5110782;27;44217;-74
2021/04/21 07:07:03;;;;;;;14.83;13.17;;;;;;;13.64;57.43;98867.38;5114175;27;41869;-72
2021/04/21 07:09:30;;;;;;;14.10;12.50;;;;;;;13.94;57.28;98870.41;5127351;27;40583;-72
2021/04/21 07:11:59;;;;;;;14.67;13.27;;;;;;;14.36;56.08;98870.72;5125710;27;41607;-74
2021/04/21 07:14:28;;;;;;;15.87;14.13;;;;;;;15.01;54.50;98872.69;5126523;27;41197;-71
2021/04/21 07:16:58;;;;;;;18.43;14.47;;;;;;;15.76;52.07;98880.78;5126778;27;41555;-74
2021/04/21 07:19:27;;;;;;;14.43;12.97;;;;;;;16.52;51.17;98884.97;5128452;27;39905;-72
2021/04/21 07:21:55;;;;;;;15.60;14.00;;;;;;;17.02;49.81;98893.09;5126122;27;42150;-75
2021/04/21 07:24:29;;;;;;;15.27;13.60;;;;;;;17.42;49.19;98891.25;5108942;27;42046;-74
2021/04/21 07:26:57;;;;;;;14.90;13.47;;;;;;;17.75;48.55;98891.88;5126267;27;42026;-74
2021/04/21 07:29:25;;;;;;;15.77;14.13;;;;;;;17.95;47.79;98898.91;5127949;27;40160;-73
2021/04/21 07:31:54;;;;;;;18.17;15.03;;;;;;;18.11;47.85;98904.56;5129751;27;41577;-73
2021/04/21 07:34:30;;;;;;;16.10;14.07;;;;;;;18.61;45.70;98907.06;5130988;27;42465;-74
2021/04/21 07:36:58;;;;;;;15.30;13.10;;;;;;;19.44;44.44;98916.00;5127811;27;42190;-75
2021/04/21 07:39:33;;;;;;;16.47;14.37;;;;;;;20.20;41.47;98932.63;5129717;27;40361;-76
2021/04/21 07:42:01;;;;;;;15.47;13.50;;;;;;;20.72;40.36;98929.03;5129342;27;41447;-76
2021/04/21 07:44:31;;;;;;;16.23;13.30;;;;;;;21.34;40.00;98936.97;5113648;27;41909;-75
2021/04/21 07:47:12;;;;;;;14.63;12.47;;;;;;;22.11;38.72;98930.47;5113045;27;41254;-74
2021/04/21 07:49:43;;;;;;;14.33;12.37;;;;;;;22.55;38.30;98939.91;5129333;27;39703;-76
2021/04/21 07:52:22;;;;;;;15.23;12.43;;;;;;;22.77;38.47;98924.03;5130830;27;42063;-74
2021/04/21 07:54:49;;;;;;;15.80;12.80;;;;;;;23.43;36.19;98945.28;5130487;27;43175;-74
2021/04/21 07:57:18;;;;;;;15.57;14.07;;;;;;;24.25;34.90;98951.13;5130589;27;41973;-75
2021/04/21 07:59:47;;;;;;;13.13;11.77;;;;;;;25.07;34.02;98957.53;5131687;27;40667;-75
2021/04/21 08:02:17;;;;;;;14.03;12.27;;;;;;;26.25;32.31;98960.06;5130908;27;41453;-75
2021/04/21 08:04:55;;;;;;;15.43;12.73;;;;;;;27.77;29.33;98976.53;5130206;27;42209;-75
2021/04/21 08:07:30;;;;;;;13.20;12.00;;;;;;;28.40;28.55;98988.06;5130803;27;42579;-74
2021/04/21 08:09:59;;;;;;;11.67;10.60;;;;;;;28.37;28.16;98971.28;5130336;27;40659;-77
2021/04/21 08:12:28;;;;;;;12.53;11.37;;;;;;;28.39;27.67;98975.50;5128865;27;41732;-77
2021/04/21 08:15:01;;;;;;;13.33;12.03;;;;;;;28.20;28.30;98977.13;5113134;27;42889;-76
2021/04/21 08:17:28;;;;;;;11.67;10.67;;;;;;;27.62;27.51;98978.56;5112951;27;40988;-76
2021/04/21 08:19:58;;;;;;;11.70;10.67;;;;;;;27.38;28.19;98979.88;5130419;27;40846;-74
2021/04/21 08:22:28;;;;;;;11.40;10.23;;;;;;;27.88;27.03;98988.72;5107546;28;41696;-75
2021/04/21 08:24:56;;;;;;;11.57;10.23;;;;;;;28.41;26.38;98978.84;5111219;27;43342;-76
2021/04/21 08:27:25;;;;;;;11.17;10.17;;;;;;;29.10;26.49;98972.19;5129172;27;41633;-76
2021/04/21 08:29:52;;;;;;;10.33;9.43;;;;;;;30.04;25.21;98969.84;5129260;27;39008;-72
2021/04/21 08:32:22;;;;;;;10.20;9.30;;;;;;;30.84;24.13;98979.19;5129496;27;41069;-75
2021/04/21 08:34:50;;;;;;;10.93;9.93;;;;;;;31.40;23.27;98989.25;5112235;27;43025;-75
2021/04/21 08:37:18;;;;;;;10.17;9.33;;;;;;;32.03;22.94;98991.66;5128004;27;41933;-73
2021/04/21 08:39:46;;;;;;;11.57;9.87;;;;;;;32.85;21.81;98976.38;5129919;27;39849;-74
2021/04/21 08:42:15;;;;;;;11.90;10.73;;;;;;;33.75;20.74;98996.13;5112496;27;41940;-74
2021/04/21 08:44:43;;;;;;;12.40;11.33;;;;;;;34.16;19.96;98985.94;5162395;27;42249;-75
2021/04/21 08:47:14;;;;;;;11.73;10.60;;;;;;;33.66;19.95;99013.16;5128973;27;42720;-77
2021/04/21 08:49:42;;;;;;;11.60;10.40;;;;;;;33.43;20.48;99008.53;5128632;27;40554;-73
2021/04/21 08:52:13;;;;;;;11.43;10.30;;;;;;;33.54;20.06;99004.94;5111804;27;40966;-75
2021/04/21 08:54:44;;;;;;;11.73;10.77;;;;;;;33.95;20.00;99003.94;5130736;27;43434;-75
2021/04/21 08:57:12;;;;;;;11.43;10.23;;;;;;;34.88;19.52;98995.28;5129781;27;42846;-75
2021/04/21 08:59:39;;;;;;;13.10;11.73;;;;;;;34.96;17.50;98996.81;5130678;27;40642;-75
2021/04/21 09:02:07;;;;;;;12.37;11.17;;;;;;;34.53;18.17;99014.72;5129400;27;42666;-75
2021/04/21 09:04:34;;;;;;;12.00;10.87;;;;;;;34.12;18.84;99006.78;5130519;27;42517;-76
2021/04/21 09:07:02;;;;;;;12.17;11.07;;;;;;;33.58;20.05;98995.16;5127330;27;42128;-75
2021/04/21 09:09:32;;;;;;;10.87;9.97;;;;;;;33.05;19.73;98985.09;5129204;27;40081;-75
2021/04/21 09:12:00;;;;;;;13.23;11.83;;;;;;;32.74;19.90;99001.91;5128681;27;42499;-75
2021/04/21 09:14:28;;;;;;;12.03;10.73;;;;;;;32.81;20.75;98988.91;5128943;27;41717;-76
2021/04/21 09:16:55;;;;;;;12.00;10.90;;;;;;;32.88;19.89;98997.88;5111501;27;41597;-74
2021/04/21 09:19:22;;;;;;;11.17;10.10;;;;;;;32.76;19.94;98991.53;5128764;27;39395;-76
2021/04/21 09:22:04;;;;;;;10.83;9.87;;;;;;;32.88;19.73;98994.28;5129416;27;41701;-74
2021/04/21 09:24:31;;;;;;;10.53;9.53;;;;;;;32.85;19.73;98973.63;5129357;27;42711;-76
2021/04/21 09:26:58;;;;;;;11.87;10.67;;;;;;;32.78;20.73;98978.38;5127042;27;42261;-76
2021/04/21 09:29:30;;;;;;;11.27;10.27;;;;;;;33.21;20.23;98989.06;5129449;27;39897;-74
2021/04/21 09:32:08;;;;;;;12.50;11.33;;;;;;;33.43;19.07;98992.88;5126395;27;41961;-74
2021/04/21 09:34:36;;;;;;;9.57;8.77;;;;;;;34.06;18.16;98996.72;5128883;27;43218;-77
2021/04/21 09:37:03;;;;;;;10.83;9.83;;;;;;;35.21;17.91;98993.63;5126859;27;42639;-74
2021/04/21 09:39:37;;;;;;;10.03;9.13;;;;;;;35.95;17.48;98981.22;5128683;27;39622;-74
2021/04/21 09:42:05;;;;;;;9.27;8.47;;;;;;;36.27;16.45;98997.03;5108007;28;42529;-75
2021/04/21 09:44:46;;;;;;;9.30;8.50;;;;;;;35.93;16.96;98958.56;5107490;28;43231;-74
2021/04/21 09:47:16;;;;;;;10.23;9.23;;;;;;;35.64;17.08;98987.38;5117895;27;42168;-76
2021/04/21 09:49:43;;;;;;;11.67;10.47;;;;;;;35.53;17.17;98988.31;5128519;27;39017;-76
2021/04/21 09:52:30;;;;;;;12.80;10.50;;;;;;;35.55;16.70;98987.00;5125307;27;40945;-74
2021/04/21 09:55:14;;;;;;;11.90;10.70;;;;;;;35.82;16.63;98984.34;5127650;27;42501;-82
2021/04/21 09:57:46;;;;;;;11.30;10.23;;;;;;;36.25;15.56;98996.44;5127989;27;42196;-75
2021/04/21 10:00:25;;;;;;;9.87;8.97;;;;;;;36.89;15.31;98985.53;5128396;27;38905;-74
2021/04/21 10:02:52;;;;;;;10.90;9.83;;;;;;;36.72;15.71;98976.56;5127044;27;41776;-76
2021/04/21 10:05:28;;;;;;;11.17;10.17;;;;;;;36.35;15.84;98972.56;5129054;27;42333;-75
2021/04/21 10:08:11;;;;;;;10.20;9.30;;;;;;;36.27;16.42;98970.28;5129050;27;42944;-76
2021/04/21 10:10:39;;;;;;;10.30;9.33;;;;;;;36.32;16.49;98972.28;5127140;27;39903;-77
2021/04/21 10:13:18;;;;;;;10.37;9.40;;;;;;;36.86;15.07;98972.22;5127972;27;41836;-77
2021/04/21 10:15:48;;;;;;;8.70;8.02;;;;;;;37.64;15.00;98967.84;5126235;27;43452;-76
2021/04/21 10:18:16;;;;;;;9.13;8.43;;;;;;;38.27;14.98;98955.66;5110228;27;40931;-77
2021/04/21 10:20:45;;;;;;;9.48;8.77;;;;;;;39.05;14.31;98959.09;5128270;27;40001;-77
2021/04/21 10:23:13;;;;;;;7.93;7.32;;;;;;;39.18;13.61;98966.00;5126633;27;41192;-77
2021/04/21 10:25:41;;;;;;;8.00;7.40;;;;;;;38.86;14.07;98962.66;5128718;27;42331;-76
2021/04/21 10:28:09;;;;;;;7.97;7.32;;;;;;;40.12;13.30;98959.59;5127250;27;41870;-76
2021/04/21 10:30:37;;;;;;;8.73;7.93;;;;;;;38.46;13.99;98954.00;5127682;27;40401;-75
2021/04/21 10:33:05;;;;;;;8.13;7.53;;;;;;;37.89;13.86;98951.38;5128838;27;41930;-76
2021/04/21 10:35:32;;;;;;;8.13;7.53;;;;;;;39.60;13.77;98951.75;5109691;27;41883;-74
2021/04/21 10:38:00;;;;;;;7.90;7.25;;;;;;;40.89;12.38;98957.16;5127999;27;42871;-76
2021/04/21 10:40:29;;;;;;;6.90;6.30;;;;;;;42.00;12.18;98954.34;5127284;27;39766;-73
2021/04/21 10:42:59;;;;;;;5.93;5.53;;;;;;;42.43;11.64;98946.78;5128020;27;41402;-76
2021/04/21 10:45:28;;;;;;;6.40;5.90;;;;;;;42.04;11.02;98960.97;5126308;27;41750;-76
2021/04/21 10:47:57;;;;;;;7.60;7.00;;;;;;;41.38;11.74;98943.09;5126821;27;42262;-76
2021/04/21 10:50:35;;;;;;;5.72;5.32;;;;;;;39.99;10.44;98960.22;5127903;27;39273;-76
2021/04/21 10:53:03;;;;;;;6.13;5.70;;;;;;;37.92;12.34;98945.31;5127353;27;41541;-73
2021/04/21 10:55:40;;;;;;;6.00;5.60;;;;;;;36.18;13.66;98943.41;5127921;27;41291;-76
2021/04/21 10:58:12;;;;;;;5.97;5.37;;;;;;;35.48;14.66;98903.72;5125949;27;42920;-77
2021/04/21 11:00:41;;;;;;;6.53;5.97;;;;;;;35.04;15.25;98916.53;5106920;28;39236;-76
2021/04/21 11:03:10;;;;;;;6.27;5.60;;;;;;;33.90;16.03;98896.66;5106786;27;41859;-76
2021/04/21 11:05:53;;;;;;;7.03;6.33;;;;;;;32.61;17.61;98900.59;5107059;27;43336;-75
2021/04/21 11:08:22;;;;;;;8.40;7.67;;;;;;;31.62;18.54;98902.00;5110011;28;41450;-74
2021/04/21 11:10:52;;;;;;;5.63;5.23;;;;;;;30.90;19.82;98896.28;5130038;27;39913;-73
2021/04/21 11:13:44;;;;;;;4.40;4.10;;;;;;;31.17;19.67;98882.31;5131332;27;42117;-74
2021/04/21 11:16:33;;;;;;;4.07;3.67;;;;;;;32.16;18.87;98894.72;5123979;27;43156;-73
2021/04/21 11:19:23;;;;;;;4.97;3.33;;;;;;;31.64;18.79;98894.44;5130476;27;41421;-74
2021/04/21 11:22:27;;;;;;;7.00;4.33;;;;;;;30.83;19.37;98892.75;5113081;27;40386;-79
2021/04/21 11:25:28;;;;;;;5.20;4.70;;;;;;;29.93;20.30;98888.56;5130995;27;40418;-76
2021/04/21 11:27:55;;;;;;;4.67;4.10;;;;;;;29.16;21.00;98884.06;5129993;27;42054;-74
2021/04/21 11:30:53;;;;;;;5.10;4.63;;;;;;;28.44;22.17;98880.34;5130828;27;42937;-74
2021/04/21 11:33:57;;;;;;;6.97;5.03;;;;;;;27.80;23.08;98871.88;5129407;27;40685;-76
2021/04/21 11:37:04;;;;;;;5.90;4.27;;;;;;;27.24;22.96;98872.03;5129734;27;42235;-77
2021/04/21 11:39:57;;;;;;;4.70;3.37;;;;;;;26.73;22.78;98868.78;5128990;27;42830;-76
2021/04/21 11:42:39;;;;;;;3.30;3.00;;;;;;;26.19;23.33;98873.97;5131271;27;42663;-75
2021/04/21 11:45:17;;;;;;;3.43;3.00;;;;;;;25.80;24.16;98853.56;5112620;27;38892;-73
2021/04/21 11:47:46;;;;;;;3.27;2.97;;;;;;;25.58;24.04;98849.13;5113325;27;42029;-76
2021/04/21 11:50:25;;;;;;;2.97;2.67;;;;;;;25.37;24.53;98856.16;5130612;27;42665;-75
2021/04/21 11:53:01;;;;;;;3.40;2.93;;;;;;;25.39;24.15;98854.13;5129587;27;42069;-74
2021/04/21 11:55:57;;;;;;;3.77;3.07;;;;;;;25.53;24.26;98856.97;5130175;27;38890;-75
2021/04/21 11:58:26;;;;;;;3.47;3.13;;;;;;;25.52;24.24;98855.28;5110978;28;41836;-72
2021/04/21 12:00:55;;;;;;;4.97;2.87;;;;;;;27.00;24.47;98845.38;5128171;27;42675;-74